Harrod, OH (45850)

12:22 AM EST on February 10, 2016 (GMT -0500)
Lima Allen County | | Change Station
CLOSE
Current Station
Airport
Location: Lima,
Elevation: 974 ft
Nearby Weather Stations

Elev 974 ft 40.71 °N, 84.03 °W | Updated 29 minutes ago

Overcast
Overcast
19 °F
Feels Like 4 °F
N
17
Wind Variable Wind from West

Today
High -- | Low -- °F
--% Chance of Precip.
Yesterday
High -- | Low -- °F
Precip. -- in
Pressure 29.86 in
Visibility 8.0 miles
Clouds Overcast 1600 ft
Windchill 4 °F
Dew Point 15 °F
Humidity 85%
Rainfall 0.00 in
Snow Depth Not available.
7:36 AM 6:03 PM
Waxing Crescent, 4% visible
METAR KAOH 100453Z AUTO 26015KT 8SM -SN OVC016 M07/M09 A2981 RMK AO2 SNB52 SLP110 P0000 T10721094 410221072
Pressure 29.86 in
Visibility 8.0 miles
Clouds Overcast 1600 ft
Windchill 4 °F
Dew Point 15 °F
Humidity 85%
Rainfall 0.00 in
Snow Depth Not available.
7:36 AM 6:03 PM
Waxing Crescent, 4% visible
METAR KAOH 100453Z AUTO 26015KT 8SM -SN OVC016 M07/M09 A2981 RMK AO2 SNB52 SLP110 P0000 T10721094 410221072
Winter Storm Nacio, the third winter storm in five days to affect the Northeast, is bringing pockets of locally heavy snow to parts of the Ohio Valley, Appalachians and mid-Atlantic states Tuesday. Winter storm warnings are posted for parts of southern Pennsylvania, southern Ohio and the higher peaks of the Appalachians. Winter weather advisories, generally for lighter snow accumulations, stretch from northeast Alabama and far north Georgia to southern Connecticut and Long Island.

10-Day Weather Forecast

Almanac

Astronomy

Feb. 10, 2016 Rise Set
Actual Time
Civil Twilight
Nautical Twilight
Astronomical Twilight
Moon
Length of Visible Light
Length of Day
Tomorrow will be .
, % of the Moon is Illuminated

Today's Extremes

State Highs State Lows

Community

WunderPhotos

Upload Photos

1,891,819 photos uploaded!

WunderBlog® & News

Nearby

Air Quality

  Air Quality AQ Index Pollutant
Not available.

Snow Depth

Station Depth Elevation

Earthquake Activity

City Distance Mag. Time & Date
Minimum magnitude displayed is 2.5.

Coastal Water Temperatures

Place Temperature

Stations

Nearby Weather Stations

Station Location Temp. Windchill Dew Point Humidity Wind Precip. Elev Updated Type
                   

Watches & Warnings

There are currently no watches in effect.